createdAt,value
2018-07-05T00:01:03.083Z,8.67
2018-07-05T00:03:49.238Z,7.23
2018-07-05T00:06:35.375Z,8.77
2018-07-05T00:09:21.554Z,7.80
2018-07-05T00:12:07.527Z,7.97
2018-07-05T00:14:47.993Z,7.83
2018-07-05T00:17:34.246Z,8.33
2018-07-05T00:20:20.605Z,8.27
2018-07-05T00:23:06.678Z,9.67
2018-07-05T00:25:52.889Z,8.93
2018-07-05T00:28:39.058Z,7.97
2018-07-05T00:31:25.025Z,8.97
2018-07-05T01:09:35.163Z,8.43
2018-07-05T01:12:21.465Z,9.40
2018-07-05T01:15:07.926Z,8.83
2018-07-05T01:17:48.200Z,9.47
2018-07-05T01:20:34.435Z,8.80
2018-07-05T01:23:21.033Z,8.10
2018-07-05T01:26:07.612Z,8.43
2018-07-05T01:28:53.911Z,7.77
2018-07-05T01:31:40.325Z,9.17
2018-07-05T01:34:26.730Z,7.97
2018-07-05T01:37:13.222Z,8.47
2018-07-05T01:39:59.712Z,8.30
2018-07-05T01:42:45.824Z,8.20
2018-07-05T01:45:32.022Z,8.20
2018-07-05T01:48:18.215Z,8.63
2018-07-05T01:51:04.345Z,9.23
2018-07-05T01:53:50.539Z,8.67
2018-07-05T01:56:36.769Z,9.43
2018-07-05T01:59:22.879Z,8.40
2018-07-05T02:02:08.864Z,8.33
2018-07-05T02:04:54.923Z,9.43
2018-07-05T02:07:40.966Z,8.13
2018-07-05T02:10:27.107Z,8.38
2018-07-05T02:13:13.091Z,7.83
2018-07-05T02:15:59.245Z,10.67
2018-07-05T02:18:45.522Z,9.23
2018-07-05T02:21:31.771Z,9.23
2018-07-05T02:24:17.820Z,8.40
2018-07-05T02:27:03.922Z,8.38
2018-07-05T02:29:50.135Z,8.97
2018-07-05T02:32:36.274Z,9.90
2018-07-05T02:35:22.688Z,8.87
2018-07-05T02:38:14.396Z,8.40
2018-07-05T02:41:00.814Z,7.77
2018-07-05T02:43:47.206Z,7.73
2018-07-05T02:46:33.199Z,8.87
2018-07-05T02:49:19.441Z,10.67
2018-07-05T02:52:05.531Z,9.10
2018-07-05T02:54:51.603Z,8.20
2018-07-05T02:57:37.688Z,10.83
2018-07-05T03:00:23.751Z,9.30
2018-07-05T03:03:09.864Z,10.33
2018-07-05T03:05:56.207Z,11.57
2018-07-05T03:08:36.490Z,9.10
2018-07-05T03:11:16.761Z,8.00
2018-07-05T03:13:57.249Z,8.30
2018-07-05T03:16:43.631Z,7.50
2018-07-05T03:19:30.139Z,7.60
2018-07-05T03:22:16.265Z,8.10
2018-07-05T03:25:02.437Z,8.83
2018-07-05T03:27:49.101Z,6.47
2018-07-05T03:30:29.495Z,8.10
2018-07-05T03:33:16.014Z,5.00
2018-07-05T03:35:56.414Z,7.17
2018-07-05T03:38:42.909Z,8.03
2018-07-05T03:41:23.254Z,8.20
2018-07-05T03:44:09.461Z,6.87
2018-07-05T03:46:55.542Z,6.70
2018-07-05T03:49:41.793Z,7.30
2018-07-05T03:52:28.013Z,8.13
2018-07-05T03:55:14.307Z,6.60
2018-07-05T03:58:00.482Z,7.10
2018-07-05T04:00:46.744Z,7.77
2018-07-05T04:03:32.921Z,9.23
2018-07-05T04:06:18.945Z,9.48
2018-07-05T04:09:05.243Z,9.67
2018-07-05T04:11:51.833Z,7.27
2018-07-05T04:14:38.075Z,9.20
2018-07-05T04:17:24.216Z,10.07
2018-07-05T04:20:10.211Z,10.03
2018-07-05T04:22:56.737Z,8.43
2018-07-05T04:25:43.234Z,9.23
2018-07-05T04:28:29.670Z,8.93
2018-07-05T04:31:16.237Z,9.30
2018-07-05T04:34:02.471Z,9.63
2018-07-05T04:36:48.544Z,7.77
2018-07-05T04:39:34.622Z,8.57
2018-07-05T04:42:20.685Z,8.37
2018-07-05T04:45:06.753Z,9.07
2018-07-05T04:47:52.890Z,8.40
2018-07-05T04:50:39.221Z,10.77
2018-07-05T04:53:25.515Z,7.97
2018-07-05T04:56:11.787Z,9.43
2018-07-05T04:58:58.059Z,9.37
2018-07-05T05:01:44.231Z,8.80
2018-07-05T05:04:24.593Z,7.90
2018-07-05T05:07:10.885Z,8.13
2018-07-05T05:09:57.037Z,8.50
2018-07-05T05:12:43.564Z,8.17
2018-07-05T05:15:29.980Z,9.53
2018-07-05T05:18:10.578Z,9.10
2018-07-05T05:20:56.995Z,8.30
2018-07-05T05:23:43.375Z,10.17
2018-07-05T05:26:29.856Z,8.80
2018-07-05T05:29:16.186Z,7.87
2018-07-05T05:32:02.617Z,7.53
2018-07-05T05:34:49.179Z,8.80
2018-07-05T05:37:29.447Z,10.80
2018-07-05T05:40:15.729Z,7.67
2018-07-05T05:43:01.923Z,9.50
2018-07-05T05:45:47.973Z,9.37
2018-07-05T05:48:34.054Z,10.23
2018-07-05T05:51:20.501Z,11.37
2018-07-05T05:54:06.923Z,10.13
2018-07-05T05:56:53.425Z,8.07
2018-07-05T05:59:33.678Z,8.43
2018-07-05T06:02:19.940Z,11.00
2018-07-05T06:05:06.199Z,12.83
2018-07-05T06:07:52.454Z,11.23
2018-07-05T06:10:38.655Z,9.30
2018-07-05T06:13:24.855Z,8.97
2018-07-05T06:16:10.953Z,11.00
2018-07-05T06:18:57.391Z,12.30
2018-07-05T06:21:43.813Z,12.97
2018-07-05T06:24:30.329Z,11.13
2018-07-05T06:27:16.423Z,12.50
2018-07-05T06:30:02.591Z,9.43
2018-07-05T06:32:49.155Z,11.13
2018-07-05T06:35:35.254Z,9.73
2018-07-05T06:38:21.255Z,8.90
2018-07-05T06:41:07.325Z,9.90
2018-07-05T06:43:53.410Z,9.90
2018-07-05T06:46:39.439Z,10.27
2018-07-05T06:49:25.700Z,10.57
2018-07-05T06:52:11.831Z,10.67
2018-07-05T06:54:58.329Z,10.17
2018-07-05T06:57:44.592Z,12.80
2018-07-05T07:00:30.871Z,14.90
2018-07-05T07:03:17.293Z,13.97
2018-07-05T07:06:03.502Z,11.73
2018-07-05T07:08:49.851Z,14.50
2018-07-05T07:11:36.305Z,13.13
2018-07-05T07:14:22.784Z,12.03
2018-07-05T07:17:03.066Z,13.10
2018-07-05T07:19:49.594Z,14.00
2018-07-05T07:22:35.766Z,12.10
2018-07-05T07:25:21.841Z,11.97
2018-07-05T07:28:08.009Z,13.03
2018-07-05T07:30:54.127Z,14.70
2018-07-05T07:33:40.195Z,13.00
2018-07-05T07:36:26.337Z,11.80
2018-07-05T07:39:12.529Z,13.33
2018-07-05T07:41:46.727Z,13.00
2018-07-05T07:44:14.969Z,13.67
2018-07-05T07:46:42.750Z,14.57
2018-07-05T07:49:10.501Z,15.23
2018-07-05T07:51:38.210Z,15.07
2018-07-05T07:54:05.983Z,16.07
2018-07-05T07:56:33.691Z,17.77
2018-07-05T07:59:01.441Z,13.30
2018-07-05T08:01:29.185Z,13.73
2018-07-05T08:03:56.943Z,15.65
2018-07-05T08:06:24.646Z,16.57
2018-07-05T08:08:52.361Z,16.23
2018-07-05T08:11:20.078Z,14.73
2018-07-05T08:13:47.813Z,17.07
2018-07-05T08:16:15.495Z,15.10
2018-07-05T08:18:43.216Z,16.27
2018-07-05T08:21:10.931Z,13.67
2018-07-05T08:23:38.636Z,16.57
2018-07-05T08:26:06.350Z,16.30
2018-07-05T08:28:34.171Z,14.73
2018-07-05T08:31:01.929Z,14.70
2018-07-05T08:33:29.673Z,22.57
2018-07-05T08:35:57.710Z,17.57
2018-07-05T08:38:25.400Z,16.50
2018-07-05T08:40:53.214Z,15.17
2018-07-05T08:43:20.930Z,17.70
2018-07-05T08:45:48.704Z,20.07
2018-07-05T08:48:16.414Z,19.33
2018-07-05T08:50:44.149Z,15.87
2018-07-05T08:53:11.915Z,16.10
2018-07-05T08:55:39.736Z,14.87
2018-07-05T08:58:08.422Z,22.00
2018-07-05T09:00:36.133Z,16.90
2018-07-05T09:03:03.913Z,15.57
2018-07-05T09:05:31.691Z,16.30
2018-07-05T09:07:59.537Z,15.57
2018-07-05T09:10:27.288Z,14.33
2018-07-05T09:12:55.015Z,16.70
2018-07-05T09:15:22.742Z,14.27
2018-07-05T09:17:50.647Z,13.77
2018-07-05T09:20:18.237Z,14.20
2018-07-05T09:22:45.975Z,13.17
2018-07-05T09:25:13.759Z,13.60
2018-07-05T09:27:41.437Z,13.03
2018-07-05T09:30:09.176Z,14.67
2018-07-05T09:32:36.937Z,16.07
2018-07-05T09:35:04.697Z,14.13
2018-07-05T09:37:32.641Z,14.13
2018-07-05T09:40:00.569Z,13.07
2018-07-05T09:42:28.435Z,13.97
2018-07-05T09:44:56.197Z,13.30
2018-07-05T09:47:24.015Z,14.27
2018-07-05T09:49:51.880Z,14.07
2018-07-05T09:52:19.584Z,14.20
2018-07-05T09:54:47.364Z,12.70
2018-07-05T09:57:15.107Z,14.20
2018-07-05T09:59:42.862Z,14.50
2018-07-05T10:02:10.628Z,13.97
2018-07-05T10:04:38.375Z,13.97
2018-07-05T10:07:06.139Z,11.77
2018-07-05T10:09:33.884Z,11.93
2018-07-05T10:12:01.698Z,11.33
2018-07-05T10:14:29.458Z,11.77
2018-07-05T10:16:57.755Z,12.95
2018-07-05T10:19:25.519Z,11.07
2018-07-05T10:21:53.232Z,11.77
2018-07-05T10:24:23.082Z,18.07
2018-07-05T10:26:50.858Z,13.77
2018-07-05T10:29:37.944Z,11.17
2018-07-05T10:32:18.217Z,9.83
2018-07-05T10:34:47.290Z,12.73
2018-07-05T10:37:20.278Z,10.67
2018-07-05T10:40:06.708Z,13.07
2018-07-05T10:42:53.037Z,11.63
2018-07-05T10:45:39.117Z,13.07
2018-07-05T10:48:25.444Z,12.20
2018-07-05T10:51:11.870Z,11.80
2018-07-05T10:53:58.183Z,8.57
2018-07-05T10:56:44.588Z,9.37
2018-07-05T10:59:31.147Z,6.97
2018-07-05T11:02:17.623Z,6.73
2018-07-05T11:05:03.982Z,6.80
2018-07-05T11:07:50.486Z,6.50
2018-07-05T11:10:36.503Z,7.10
2018-07-05T11:13:22.719Z,6.17
2018-07-05T11:16:08.771Z,6.90
2018-07-05T11:18:55.054Z,12.63
2018-07-05T11:21:41.418Z,7.03
2018-07-05T11:24:27.576Z,7.77
2018-07-05T11:27:14.974Z,5.60
2018-07-05T11:30:01.522Z,9.87
2018-07-05T11:32:47.666Z,6.70
2018-07-05T11:35:33.764Z,6.70
2018-07-05T11:38:21.057Z,5.83
2018-07-05T11:41:08.294Z,5.80
2018-07-05T11:43:54.574Z,3.83
2018-07-05T11:46:40.793Z,6.50
2018-07-05T11:49:27.092Z,4.17
2018-07-05T11:52:13.273Z,4.37
2018-07-05T11:54:59.311Z,4.43
2018-07-05T11:57:45.817Z,5.50
2018-07-05T12:00:32.066Z,4.53
2018-07-05T12:03:18.571Z,4.45
2018-07-05T12:06:04.890Z,5.03
2018-07-05T12:08:51.501Z,4.43
2018-07-05T12:11:37.533Z,5.10
2018-07-05T12:14:23.727Z,5.70
2018-07-05T12:17:09.864Z,5.10
2018-07-05T12:19:56.119Z,4.37
2018-07-05T12:22:42.531Z,6.60
2018-07-05T12:25:29.057Z,4.77
2018-07-05T12:28:15.469Z,4.57
2018-07-05T12:31:01.840Z,4.63
2018-07-05T12:33:48.095Z,7.63
2018-07-05T12:36:34.629Z,5.10
2018-07-05T12:39:21.250Z,4.73
2018-07-05T12:42:07.510Z,5.20
2018-07-05T12:44:53.855Z,4.47
2018-07-05T12:47:40.082Z,4.30
2018-07-05T12:50:26.719Z,5.63
2018-07-05T12:53:12.958Z,5.17
2018-07-05T12:55:59.535Z,4.00
2018-07-05T12:58:45.495Z,6.40
2018-07-05T13:01:31.767Z,4.20
2018-07-05T13:04:17.949Z,3.67
2018-07-05T13:07:04.276Z,3.50
2018-07-05T13:09:50.463Z,3.60
2018-07-05T13:12:36.811Z,5.67
2018-07-05T13:15:23.015Z,3.40
2018-07-05T13:18:09.225Z,3.53
2018-07-05T13:20:55.178Z,5.43
2018-07-05T13:23:41.339Z,4.57
2018-07-05T13:26:27.511Z,4.73
2018-07-05T13:29:13.666Z,4.93
2018-07-05T13:31:59.990Z,3.80
2018-07-05T13:34:46.172Z,4.83
2018-07-05T13:37:32.500Z,3.80
2018-07-05T13:40:18.694Z,3.30
2018-07-05T13:43:04.964Z,4.57
2018-07-05T13:45:51.288Z,4.93
2018-07-05T13:48:37.745Z,4.13
2018-07-05T13:51:23.996Z,6.63
2018-07-05T13:54:10.288Z,4.77
2018-07-05T13:56:56.514Z,5.70
2018-07-05T13:59:42.697Z,4.87
2018-07-05T14:02:28.934Z,3.07
2018-07-05T14:05:15.369Z,3.53
2018-07-05T14:08:02.018Z,3.60
2018-07-05T14:10:47.951Z,3.90
2018-07-05T14:13:34.296Z,2.87
2018-07-05T14:16:14.637Z,2.60
2018-07-05T14:19:00.994Z,4.83
2018-07-05T14:21:47.566Z,2.77
2018-07-05T14:24:34.162Z,2.80
2018-07-05T14:27:20.634Z,2.77
2018-07-05T14:30:07.007Z,4.37
2018-07-05T14:32:53.287Z,3.23
2018-07-05T14:35:39.538Z,3.73
2018-07-05T14:38:25.845Z,3.57
2018-07-05T14:41:12.081Z,4.13
2018-07-05T14:43:58.315Z,3.27
2018-07-05T14:46:44.622Z,4.00
2018-07-05T14:49:30.846Z,2.70
2018-07-05T14:52:17.397Z,2.73
2018-07-05T14:55:03.936Z,3.30
2018-07-05T14:57:50.255Z,3.57
2018-07-05T15:00:36.635Z,4.50
2018-07-05T15:03:23.049Z,5.13
2018-07-05T15:06:03.624Z,4.17
2018-07-05T15:08:50.088Z,5.90
2018-07-05T15:11:36.471Z,3.67
2018-07-05T15:14:22.783Z,3.57
2018-07-05T15:17:09.196Z,3.43
2018-07-05T15:19:49.529Z,3.77
2018-07-05T15:22:35.860Z,3.30
2018-07-05T15:25:22.210Z,4.03
2018-07-05T15:28:11.240Z,4.20
2018-07-05T15:30:57.689Z,5.23
2018-07-05T15:33:38.292Z,3.53
2018-07-05T15:36:24.703Z,3.80
2018-07-05T15:39:11.107Z,3.63
2018-07-05T15:41:57.519Z,3.10
2018-07-05T15:44:44.011Z,3.30
2018-07-05T15:47:30.576Z,3.20
2018-07-05T15:50:16.927Z,4.13
2018-07-05T15:53:03.337Z,3.60
2018-07-05T15:55:49.707Z,3.80
2018-07-05T15:58:30.954Z,5.60
2018-07-05T16:01:17.709Z,4.87
2018-07-05T16:04:04.241Z,3.03
2018-07-05T16:06:50.791Z,3.73
2018-07-05T16:09:38.086Z,2.63
2018-07-05T16:12:24.667Z,3.10
2018-07-05T16:15:10.888Z,3.93
2018-07-05T16:17:57.615Z,4.95
2018-07-05T16:20:43.988Z,5.50
2018-07-05T16:23:30.126Z,4.97
2018-07-05T16:26:16.554Z,3.77
2018-07-05T16:28:57.133Z,6.10
2018-07-05T16:31:43.820Z,8.03
2018-07-05T16:34:30.463Z,4.53
2018-07-05T16:37:16.858Z,4.67
2018-07-05T16:40:03.176Z,7.47
2018-07-05T16:42:49.736Z,7.87
2018-07-05T16:45:36.249Z,4.83
2018-07-05T16:48:22.884Z,3.47
2018-07-05T16:51:09.635Z,3.33
2018-07-05T16:53:56.179Z,3.33
2018-07-05T16:56:42.919Z,3.60
2018-07-05T16:59:29.720Z,4.30
2018-07-05T17:02:16.395Z,3.13
2018-07-05T17:05:02.711Z,4.27
2018-07-05T17:07:48.823Z,5.60
2018-07-05T17:10:35.190Z,3.30
2018-07-05T17:13:21.519Z,3.93
2018-07-05T17:16:07.874Z,3.00
2018-07-05T17:18:54.340Z,2.83
2018-07-05T17:21:40.636Z,3.60
2018-07-05T17:24:27.022Z,3.53
2018-07-05T17:27:13.579Z,3.57
2018-07-05T17:30:00.015Z,4.07
2018-07-05T17:32:46.220Z,3.30
2018-07-05T17:35:33.107Z,3.20
2018-07-05T17:38:19.653Z,3.07
2018-07-05T17:41:06.404Z,3.03
2018-07-05T17:43:52.962Z,3.47
2018-07-05T17:46:39.397Z,3.13
2018-07-05T17:49:25.970Z,2.90
2018-07-05T17:52:12.176Z,4.70
2018-07-05T17:54:58.673Z,2.70
2018-07-05T17:57:45.261Z,3.27
2018-07-05T18:00:31.773Z,3.50
2018-07-05T18:03:18.040Z,3.07
2018-07-05T18:06:04.390Z,3.10
2018-07-05T18:08:50.749Z,4.23
2018-07-05T18:11:37.043Z,5.20
2018-07-05T18:14:23.584Z,3.00
2018-07-05T18:17:09.757Z,3.43
2018-07-05T18:19:56.220Z,5.30
2018-07-05T18:22:42.279Z,3.97
2018-07-05T18:25:28.876Z,4.03
2018-07-05T18:28:15.409Z,3.27
2018-07-05T18:31:01.810Z,4.08
2018-07-05T18:33:48.278Z,5.17
2018-07-05T18:36:34.595Z,7.30
2018-07-05T18:39:20.892Z,4.90
2018-07-05T18:42:07.441Z,4.17
2018-07-05T18:44:54.022Z,4.20
2018-07-05T18:47:40.699Z,4.57
2018-07-05T18:50:27.063Z,4.40
2018-07-05T18:53:13.394Z,3.93
2018-07-05T18:55:59.627Z,4.73
2018-07-05T18:58:46.264Z,3.70
2018-07-05T19:01:32.763Z,3.80
2018-07-05T19:04:19.087Z,3.57
2018-07-05T19:06:59.547Z,5.90
2018-07-05T19:09:46.009Z,4.17
2018-07-05T19:12:32.513Z,4.57
2018-07-05T19:15:19.088Z,4.00
2018-07-05T19:18:05.646Z,4.00
2018-07-05T19:20:51.944Z,5.23
2018-07-05T19:23:38.360Z,3.40
2018-07-05T19:26:24.744Z,5.07
2018-07-05T19:29:11.281Z,3.00
2018-07-05T19:31:57.994Z,3.10
2018-07-05T19:34:44.589Z,4.43
2018-07-05T19:37:31.110Z,3.57
2018-07-05T19:40:18.836Z,3.40
2018-07-05T19:43:05.252Z,2.67
2018-07-05T19:45:51.758Z,2.50
2018-07-05T19:48:39.668Z,4.03
2018-07-05T19:51:39.064Z,2.47
2018-07-05T19:54:30.889Z,3.20
2018-07-05T19:57:17.344Z,2.53
2018-07-05T20:00:03.749Z,2.37
2018-07-05T20:02:50.121Z,2.70
2018-07-05T20:05:36.690Z,2.87
2018-07-05T20:08:22.869Z,3.17
2018-07-05T20:11:09.450Z,3.47
2018-07-05T20:13:56.357Z,2.73
2018-07-05T20:16:37.444Z,3.10
2018-07-05T20:19:24.158Z,3.17
2018-07-05T20:22:16.113Z,2.50
2018-07-05T20:25:02.609Z,2.70
2018-07-05T20:27:48.972Z,3.27
2018-07-05T20:30:35.554Z,2.43
2018-07-05T20:33:23.495Z,2.15
2018-07-05T20:36:09.816Z,2.17
2018-07-05T20:38:56.308Z,2.63
2018-07-05T20:41:42.908Z,3.53
2018-07-05T20:44:29.404Z,1.83
2018-07-05T20:47:16.282Z,2.30
2018-07-05T20:50:02.764Z,2.87
2018-07-05T20:55:47.457Z,2.33
2018-07-05T20:58:34.159Z,3.00
2018-07-05T21:01:21.428Z,2.17
2018-07-05T21:04:07.811Z,2.17
2018-07-05T21:09:48.866Z,2.83
2018-07-05T21:12:35.233Z,1.63
2018-07-05T21:15:21.708Z,4.17
2018-07-05T21:18:08.175Z,4.00
2018-07-05T21:20:54.551Z,2.23
2018-07-05T21:23:41.484Z,2.30
2018-07-05T21:26:28.550Z,2.70
2018-07-05T21:29:14.649Z,2.53
2018-07-05T21:32:00.927Z,3.07
2018-07-05T21:34:47.307Z,3.53
2018-07-05T21:37:33.715Z,2.53
2018-07-05T21:40:20.239Z,2.50
2018-07-05T21:43:00.690Z,2.40
2018-07-05T21:45:48.049Z,4.33
2018-07-05T21:48:34.501Z,5.50
2018-07-05T21:51:20.945Z,5.53
2018-07-05T21:54:07.543Z,3.67
2018-07-05T21:56:53.996Z,3.13
2018-07-05T21:59:40.382Z,3.43
2018-07-05T22:02:27.900Z,3.30
2018-07-05T22:05:14.546Z,2.80
2018-07-05T22:07:55.588Z,3.43
2018-07-05T22:10:41.947Z,2.40
2018-07-05T22:13:28.243Z,3.80
2018-07-05T22:16:14.731Z,6.20
2018-07-05T22:20:09.869Z,2.80
2018-07-05T22:23:01.655Z,3.40
2018-07-05T22:25:47.563Z,4.20
2018-07-05T22:28:39.412Z,2.87
2018-07-05T22:31:32.705Z,3.67
2018-07-05T22:34:19.103Z,3.17
2018-07-05T22:37:05.729Z,2.97
2018-07-05T22:39:52.135Z,3.07
2018-07-05T22:42:38.721Z,3.13
2018-07-05T22:45:25.107Z,3.00
2018-07-05T22:48:11.625Z,4.50
2018-07-05T22:50:58.061Z,3.70
2018-07-05T22:53:44.579Z,4.40
2018-07-05T22:56:30.973Z,3.30
2018-07-05T22:59:17.568Z,3.73
2018-07-05T23:01:57.854Z,3.30
2018-07-05T23:04:45.089Z,4.15
2018-07-05T23:07:31.604Z,3.80
2018-07-05T23:10:17.789Z,4.17
2018-07-05T23:13:04.094Z,5.60
2018-07-05T23:15:50.490Z,4.87
2018-07-05T23:18:36.830Z,3.13
2018-07-05T23:21:23.317Z,3.83
2018-07-05T23:24:09.607Z,5.03
2018-07-05T23:26:49.974Z,3.40
2018-07-05T23:29:30.449Z,2.87
2018-07-05T23:32:10.912Z,3.30
2018-07-05T23:34:57.284Z,2.60
2018-07-05T23:37:43.575Z,4.67
2018-07-05T23:40:30.391Z,2.83
2018-07-05T23:43:16.758Z,3.47
2018-07-05T23:46:03.479Z,6.47
2018-07-05T23:48:49.914Z,3.77
2018-07-05T23:51:36.079Z,3.40
2018-07-05T23:54:22.571Z,3.30
2018-07-05T23:57:02.946Z,3.27
2018-07-05T23:59:43.322Z,3.43
